createdAt,value
2018-06-22T00:02:47.829Z,59.02
2018-06-22T00:05:51.116Z,59.16
2018-06-22T00:08:55.105Z,59.11
2018-06-22T00:11:58.284Z,59.43
2018-06-22T00:15:01.507Z,59.71
2018-06-22T00:18:04.738Z,60.03
2018-06-22T00:21:07.920Z,59.87
2018-06-22T00:24:11.095Z,60.53
2018-06-22T00:27:14.319Z,60.04
2018-06-22T00:30:17.618Z,60.44
2018-06-22T00:33:21.046Z,60.37
2018-06-22T00:36:24.285Z,60.25
2018-06-22T00:39:27.460Z,60.75
2018-06-22T00:42:30.701Z,60.94
2018-06-22T00:45:34.067Z,60.50
2018-06-22T00:48:37.260Z,60.63
2018-06-22T00:51:40.442Z,60.63
2018-06-22T00:54:43.685Z,60.84
2018-06-22T00:57:46.929Z,60.62
2018-06-22T01:00:50.087Z,60.87
2018-06-22T01:03:53.331Z,61.07
2018-06-22T01:06:56.539Z,61.22
2018-06-22T01:09:59.751Z,61.04
2018-06-22T01:13:02.965Z,60.91
2018-06-22T01:16:06.144Z,60.77
2018-06-22T01:19:09.657Z,60.69
2018-06-22T01:22:12.898Z,61.03
2018-06-22T01:25:16.089Z,60.92
2018-06-22T01:28:19.306Z,60.85
2018-06-22T01:31:22.507Z,60.82
2018-06-22T01:34:25.673Z,61.43
2018-06-22T01:37:28.944Z,61.51
2018-06-22T01:40:32.167Z,61.99
2018-06-22T01:43:35.336Z,61.45
2018-06-22T01:46:38.513Z,62.40
2018-06-22T01:49:42.091Z,61.86
2018-06-22T01:52:45.291Z,62.11
2018-06-22T01:55:48.539Z,61.74
2018-06-22T01:58:51.771Z,62.30
2018-06-22T02:01:55.138Z,62.58
2018-06-22T02:04:58.348Z,62.76
2018-06-22T02:08:01.524Z,62.34
2018-06-22T02:11:04.793Z,63.09
2018-06-22T02:14:08.069Z,63.32
2018-06-22T02:17:11.241Z,63.22
2018-06-22T02:20:14.430Z,63.24
2018-06-22T02:23:17.697Z,63.12
2018-06-22T02:26:20.896Z,63.67
2018-06-22T02:29:24.061Z,63.66
2018-06-22T02:32:27.229Z,64.18
2018-06-22T02:35:30.407Z,63.40
2018-06-22T02:38:33.615Z,63.62
2018-06-22T02:41:36.831Z,63.46
2018-06-22T02:44:40.051Z,63.30
2018-06-22T02:47:43.226Z,63.31
2018-06-22T02:50:46.380Z,63.41
2018-06-22T02:53:49.643Z,63.47
2018-06-22T02:56:52.841Z,63.34
2018-06-22T02:59:56.122Z,63.56
2018-06-22T03:02:59.199Z,62.92
2018-06-22T03:06:02.457Z,63.10
2018-06-22T03:09:07.042Z,63.13
2018-06-22T03:12:10.207Z,63.56
2018-06-22T03:15:13.439Z,63.02
2018-06-22T03:18:16.685Z,63.37
2018-06-22T03:21:19.975Z,63.40
2018-06-22T03:24:23.126Z,62.84
2018-06-22T03:27:26.279Z,62.76
2018-06-22T03:30:29.590Z,62.88
2018-06-22T03:33:33.041Z,62.89
2018-06-22T03:36:36.372Z,63.01
2018-06-22T03:39:39.659Z,62.68
2018-06-22T03:42:43.070Z,62.89
2018-06-22T03:45:46.309Z,63.42
2018-06-22T03:48:50.472Z,63.26
2018-06-22T03:51:53.698Z,63.07
2018-06-22T03:54:56.852Z,62.81
2018-06-22T03:58:00.049Z,62.91
2018-06-22T04:01:03.203Z,62.70
2018-06-22T04:04:06.393Z,62.95
2018-06-22T04:07:09.633Z,63.25
2018-06-22T04:10:12.817Z,62.71
2018-06-22T04:13:15.998Z,62.78
2018-06-22T04:16:19.673Z,62.62
2018-06-22T04:19:22.880Z,62.38
2018-06-22T04:22:26.155Z,63.11
2018-06-22T04:25:29.550Z,63.37
2018-06-22T04:28:32.919Z,63.14
2018-06-22T04:31:36.344Z,62.88
2018-06-22T04:34:39.529Z,62.83
2018-06-22T04:37:42.725Z,63.11
2018-06-22T04:40:45.903Z,62.54
2018-06-22T04:43:49.096Z,62.89
2018-06-22T04:46:53.065Z,62.89
2018-06-22T04:49:56.213Z,62.97
2018-06-22T04:52:59.412Z,63.08
2018-06-22T04:56:02.628Z,62.75
2018-06-22T04:59:05.872Z,62.99
2018-06-22T05:02:10.389Z,63.06
2018-06-22T05:05:13.749Z,62.55
2018-06-22T05:08:17.060Z,62.58
2018-06-22T05:11:20.334Z,62.35
2018-06-22T05:14:24.239Z,62.61
2018-06-22T05:17:27.448Z,62.15
2018-06-22T05:20:30.790Z,62.13
2018-06-22T05:23:34.032Z,61.93
2018-06-22T05:26:37.246Z,61.80
2018-06-22T05:29:40.643Z,61.89
2018-06-22T05:32:45.566Z,61.86
2018-06-22T05:35:48.906Z,62.06
2018-06-22T05:38:52.297Z,62.10
2018-06-22T05:41:55.460Z,61.75
2018-06-22T05:44:58.750Z,61.98
2018-06-22T05:48:01.938Z,61.73
2018-06-22T05:51:05.853Z,62.10
2018-06-22T05:54:09.048Z,61.63
2018-06-22T05:57:12.254Z,61.33
2018-06-22T06:00:15.514Z,60.75
2018-06-22T06:03:18.734Z,61.16
2018-06-22T06:06:21.927Z,61.13
2018-06-22T06:09:25.151Z,61.08
2018-06-22T06:12:28.406Z,61.05
2018-06-22T06:15:31.735Z,60.32
2018-06-22T06:18:34.969Z,62.48
2018-06-22T06:21:38.194Z,59.67
2018-06-22T06:24:41.364Z,59.70
2018-06-22T06:27:44.584Z,59.78
2018-06-22T06:30:47.763Z,59.97
2018-06-22T06:33:50.935Z,60.56
2018-06-22T06:36:54.106Z,60.41
2018-06-22T06:39:57.296Z,60.11
2018-06-22T06:43:00.496Z,60.58
2018-06-22T06:46:03.749Z,60.23
2018-06-22T06:49:06.931Z,60.26
2018-06-22T06:52:10.132Z,59.69
2018-06-22T06:55:13.325Z,60.01
2018-06-22T06:58:16.520Z,59.56
2018-06-22T07:01:19.708Z,60.06
2018-06-22T07:04:22.887Z,59.80
2018-06-22T07:07:26.125Z,59.43
2018-06-22T07:10:29.307Z,59.94
2018-06-22T07:13:32.502Z,59.54
2018-06-22T07:16:35.933Z,60.33
2018-06-22T07:19:39.239Z,60.41
2018-06-22T07:22:42.460Z,60.23
2018-06-22T07:25:45.662Z,60.21
2018-06-22T07:28:48.877Z,60.24
2018-06-22T07:31:52.062Z,59.74
2018-06-22T07:34:55.195Z,59.37
2018-06-22T07:37:58.388Z,59.27
2018-06-22T07:41:01.657Z,59.34
2018-06-22T07:44:04.932Z,58.99
2018-06-22T07:47:08.164Z,59.05
2018-06-22T07:50:11.371Z,59.15
2018-06-22T07:53:14.573Z,58.38
2018-06-22T07:56:17.782Z,57.15
2018-06-22T07:59:21.027Z,57.60
2018-06-22T08:02:24.275Z,58.57
2018-06-22T08:05:27.536Z,61.08
2018-06-22T08:08:30.781Z,63.00
2018-06-22T08:11:34.037Z,65.38
2018-06-22T08:14:37.328Z,65.92
2018-06-22T08:17:41.629Z,67.71
2018-06-22T08:20:46.471Z,67.25
2018-06-22T08:23:50.143Z,67.32
2018-06-22T08:26:53.799Z,67.68
2018-06-22T08:29:58.079Z,68.55
2018-06-22T08:33:02.319Z,67.67
2018-06-22T08:36:05.774Z,66.85
2018-06-22T08:39:10.131Z,67.23
2018-06-22T08:42:14.537Z,67.36
2018-06-22T08:45:18.085Z,66.93
2018-06-22T08:48:21.842Z,66.03
2018-06-22T08:51:25.563Z,65.25
2018-06-22T08:54:29.536Z,65.57
2018-06-22T08:57:34.222Z,64.18
2018-06-22T09:00:37.664Z,64.20
2018-06-22T09:03:42.223Z,62.66
2018-06-22T09:06:46.456Z,63.24
2018-06-22T09:09:49.943Z,61.70
2018-06-22T09:12:56.290Z,60.65
2018-06-22T09:16:00.175Z,60.63
2018-06-22T09:19:03.627Z,60.43
2018-06-22T09:22:06.997Z,60.05
2018-06-22T09:25:10.236Z,60.24
2018-06-22T09:28:13.950Z,60.54
2018-06-22T09:31:17.905Z,58.65
2018-06-22T09:34:21.434Z,56.70
2018-06-22T09:37:25.764Z,55.58
2018-06-22T09:40:29.469Z,54.09
2018-06-22T09:43:33.076Z,51.45
2018-06-22T09:46:37.429Z,52.22
2018-06-22T09:49:41.912Z,52.05
2018-06-22T09:52:45.872Z,53.19
2018-06-22T09:55:49.862Z,52.52
2018-06-22T09:58:54.016Z,53.28
2018-06-22T10:01:59.324Z,53.53
2018-06-22T10:05:03.470Z,53.71
2018-06-22T10:08:07.151Z,54.05
2018-06-22T10:11:10.484Z,54.05
2018-06-22T10:14:13.836Z,53.52
2018-06-22T10:17:17.147Z,53.06
2018-06-22T10:20:20.436Z,51.97
2018-06-22T10:23:24.002Z,50.02
2018-06-22T10:26:27.387Z,49.71
2018-06-22T10:29:30.631Z,48.63
2018-06-22T10:32:33.939Z,50.44
2018-06-22T10:35:37.239Z,51.20
2018-06-22T10:38:40.532Z,52.31
2018-06-22T10:41:43.856Z,52.51
2018-06-22T10:44:47.125Z,51.38
2018-06-22T10:47:50.679Z,52.38
2018-06-22T10:50:53.947Z,52.78
2018-06-22T10:53:57.863Z,52.06
2018-06-22T10:57:01.316Z,52.16
2018-06-22T11:00:05.383Z,51.78
2018-06-22T11:03:11.759Z,51.68
2018-06-22T11:06:16.632Z,51.29
2018-06-22T11:09:21.075Z,51.15
2018-06-22T11:12:24.921Z,51.25
2018-06-22T11:15:28.367Z,50.17
2018-06-22T11:18:35.777Z,50.09
2018-06-22T11:21:39.136Z,49.41
2018-06-22T11:24:42.799Z,49.37
2018-06-22T11:27:46.153Z,49.54
2018-06-22T11:30:49.512Z,48.83
2018-06-22T11:33:52.880Z,48.49
2018-06-22T11:36:56.200Z,48.22
2018-06-22T11:39:59.518Z,47.93
2018-06-22T11:43:02.781Z,48.70
2018-06-22T11:46:06.239Z,49.56
2018-06-22T11:49:09.545Z,49.45
2018-06-22T11:52:12.951Z,49.45
2018-06-22T11:55:18.740Z,47.96
2018-06-22T11:58:23.248Z,47.38
2018-06-22T12:01:35.818Z,46.75
2018-06-22T12:04:49.759Z,45.40
2018-06-22T12:07:53.606Z,44.79
2018-06-22T12:11:02.040Z,44.15
2018-06-22T12:14:06.767Z,44.58
2018-06-22T12:17:10.192Z,43.00
2018-06-22T12:20:20.734Z,43.57
2018-06-22T12:23:31.382Z,43.56
2018-06-22T12:26:34.798Z,43.08
2018-06-22T12:29:38.387Z,44.11
2018-06-22T12:32:41.968Z,43.12
2018-06-22T12:35:52.782Z,43.16
2018-06-22T12:39:00.516Z,43.05
2018-06-22T12:42:05.017Z,43.56
2018-06-22T12:45:08.871Z,43.85
2018-06-22T12:48:21.598Z,45.19
2018-06-22T12:51:25.566Z,45.43
2018-06-22T12:54:30.130Z,46.13
2018-06-22T12:57:34.298Z,45.74
2018-06-22T13:00:37.800Z,46.15
2018-06-22T13:03:42.139Z,46.39
2018-06-22T13:06:46.429Z,46.66
2018-06-22T13:09:50.583Z,45.82
2018-06-22T13:12:56.312Z,45.63
2018-06-22T13:15:59.979Z,46.48
2018-06-22T13:19:04.706Z,46.36
2018-06-22T13:22:08.760Z,45.59
2018-06-22T13:25:13.966Z,45.43
2018-06-22T13:28:18.801Z,44.31
2018-06-22T13:31:22.867Z,44.05
2018-06-22T13:34:26.966Z,43.54
2018-06-22T13:37:31.668Z,42.59
2018-06-22T13:40:35.800Z,42.55
2018-06-22T13:43:39.500Z,41.28
2018-06-22T13:46:43.662Z,40.16
2018-06-22T13:49:47.315Z,40.50
2018-06-22T13:52:50.854Z,39.69
2018-06-22T13:55:54.880Z,40.79
2018-06-22T13:58:58.704Z,40.18
2018-06-22T14:02:04.004Z,39.57
2018-06-22T14:05:12.872Z,38.57
2018-06-22T14:08:19.480Z,37.28
2018-06-22T14:11:24.742Z,36.75
2018-06-22T14:14:30.400Z,36.70
2018-06-22T14:17:36.189Z,37.28
2018-06-22T14:24:24.216Z,38.06
2018-06-22T14:27:27.724Z,38.14
2018-06-22T14:30:31.163Z,39.58
2018-06-22T14:33:34.659Z,41.26
2018-06-22T14:36:38.102Z,41.95
2018-06-22T14:39:41.517Z,42.02
2018-06-22T14:42:45.333Z,42.20
2018-06-22T14:45:49.592Z,39.60
2018-06-22T14:48:53.500Z,39.11
2018-06-22T14:52:02.675Z,39.51
2018-06-22T14:55:11.170Z,40.06
2018-06-22T14:58:20.678Z,39.26
2018-06-22T15:01:31.051Z,39.29
2018-06-22T15:04:56.683Z,40.20
2018-06-22T15:08:07.356Z,39.52
2018-06-22T15:11:17.832Z,40.19
2018-06-22T15:14:29.193Z,40.09
2018-06-22T15:17:37.539Z,40.99
2018-06-22T15:20:45.786Z,39.89
2018-06-22T15:23:49.530Z,40.80
2018-06-22T15:26:53.760Z,41.21
2018-06-22T15:29:58.548Z,41.66
2018-06-22T15:33:02.269Z,41.71
2018-06-22T15:36:12.342Z,41.65
2018-06-22T15:39:21.518Z,41.79
2018-06-22T15:42:30.349Z,42.89
2018-06-22T15:45:39.079Z,43.06
2018-06-22T15:48:48.714Z,44.09
2018-06-22T15:51:57.645Z,43.87
2018-06-22T15:55:08.166Z,43.66
2018-06-22T15:58:11.671Z,43.95
2018-06-22T16:01:15.049Z,43.97
2018-06-22T16:04:18.413Z,42.72
2018-06-22T16:07:22.691Z,41.86
2018-06-22T16:10:26.654Z,41.92
2018-06-22T16:13:30.315Z,42.17
2018-06-22T16:16:39.226Z,41.66
2018-06-22T16:19:48.089Z,41.48
2018-06-22T16:22:56.665Z,40.95
2018-06-22T16:26:05.854Z,40.52
2018-06-22T16:29:09.334Z,40.70
2018-06-22T16:32:13.377Z,40.14
2018-06-22T16:35:16.777Z,40.29
2018-06-22T16:38:20.216Z,39.75
2018-06-22T16:41:24.146Z,39.98
2018-06-22T16:44:27.747Z,40.00
2018-06-22T16:47:31.608Z,40.08
2018-06-22T16:50:35.102Z,41.03
2018-06-22T16:53:38.527Z,41.44
2018-06-22T16:56:42.037Z,41.16
2018-06-22T16:59:46.324Z,41.77
2018-06-22T17:02:52.710Z,41.80
2018-06-22T17:05:57.488Z,41.88
2018-06-22T17:09:06.470Z,42.19
2018-06-22T17:12:15.128Z,42.83
2018-06-22T17:15:28.364Z,42.23
2018-06-22T17:18:37.328Z,42.04
2018-06-22T17:21:42.125Z,42.78
2018-06-22T17:24:46.219Z,42.84
2018-06-22T17:27:49.962Z,42.91
2018-06-22T17:30:53.892Z,43.27
2018-06-22T17:33:58.492Z,42.02
2018-06-22T17:37:03.180Z,41.95
2018-06-22T17:40:09.593Z,42.20
2018-06-22T17:43:13.514Z,42.43
2018-06-22T17:46:32.588Z,42.18
2018-06-22T17:49:39.880Z,42.71
2018-06-22T17:52:43.551Z,43.92
2018-06-22T17:55:47.745Z,43.63
2018-06-22T17:58:56.774Z,43.41
2018-06-22T18:02:05.834Z,44.25
2018-06-22T18:05:14.687Z,43.90
2018-06-22T18:08:23.666Z,44.33
2018-06-22T18:11:32.664Z,43.68
2018-06-22T18:14:36.235Z,44.55
2018-06-22T18:17:39.948Z,49.85
2018-06-22T18:20:43.948Z,53.30
2018-06-22T18:23:47.467Z,53.75
2018-06-22T18:26:52.376Z,55.39
2018-06-22T18:29:56.738Z,53.77
2018-06-22T18:33:00.418Z,54.84
2018-06-22T18:36:06.943Z,54.66
2018-06-22T18:39:12.013Z,57.17
2018-06-22T18:42:16.610Z,57.41
2018-06-22T18:45:20.317Z,55.93
2018-06-22T18:48:24.270Z,53.77
2018-06-22T18:51:28.178Z,53.84
2018-06-22T18:54:37.430Z,54.36
2018-06-22T18:57:46.299Z,53.18
2018-06-22T19:00:55.907Z,52.42
2018-06-22T19:04:00.635Z,54.28
2018-06-22T19:07:06.569Z,53.28
2018-06-22T19:10:10.700Z,52.09
2018-06-22T19:13:14.397Z,52.22
2018-06-22T19:16:19.432Z,51.14
2018-06-22T19:19:23.530Z,50.09
2018-06-22T19:22:27.488Z,50.73
2018-06-22T19:25:31.008Z,50.22
2018-06-22T19:28:36.977Z,50.60
2018-06-22T19:31:40.647Z,50.19
2018-06-22T19:34:49.534Z,50.21
2018-06-22T19:37:53.237Z,50.31
2018-06-22T19:40:57.204Z,49.49
2018-06-22T19:44:06.237Z,49.83
2018-06-22T19:47:15.234Z,49.21
2018-06-22T19:50:24.236Z,50.17
2018-06-22T19:53:33.111Z,49.41
2018-06-22T19:56:37.707Z,49.55
2018-06-22T19:59:41.227Z,49.54
2018-06-22T20:02:44.923Z,49.89
2018-06-22T20:05:48.482Z,49.70
2018-06-22T20:08:52.949Z,49.43
2018-06-22T20:11:57.585Z,48.98
2018-06-22T20:15:01.194Z,49.14
2018-06-22T20:18:04.860Z,49.06
2018-06-22T20:21:09.321Z,49.08
2018-06-22T20:24:12.990Z,48.75
2018-06-22T20:27:19.909Z,49.00
2018-06-22T20:30:23.947Z,48.85
2018-06-22T20:33:27.781Z,48.62
2018-06-22T20:36:36.501Z,48.99
2018-06-22T20:39:45.465Z,48.74
2018-06-22T20:42:54.407Z,48.38
2018-06-22T20:45:59.247Z,48.54
2018-06-22T20:49:08.142Z,48.86
2018-06-22T20:52:11.964Z,49.44
2018-06-22T20:55:16.736Z,49.47
2018-06-22T20:58:20.744Z,49.94
2018-06-22T21:01:24.425Z,50.13
2018-06-22T21:04:28.053Z,50.27
2018-06-22T21:07:31.842Z,50.42
2018-06-22T21:10:35.486Z,50.58
2018-06-22T21:13:39.101Z,51.03
2018-06-22T21:16:42.755Z,51.59
2018-06-22T21:19:47.160Z,51.76
2018-06-22T21:22:50.915Z,51.89
2018-06-22T21:25:54.474Z,52.23
2018-06-22T21:29:03.313Z,51.96
2018-06-22T21:32:11.919Z,51.96
2018-06-22T21:35:20.540Z,52.38
2018-06-22T21:38:29.254Z,52.32
2018-06-22T21:41:32.700Z,52.94
2018-06-22T21:44:36.429Z,53.79
2018-06-22T21:47:39.987Z,54.23
2018-06-22T21:50:43.396Z,54.31
2018-06-22T21:53:46.754Z,54.61
2018-06-22T21:56:50.160Z,54.40
2018-06-22T21:59:53.588Z,54.74
2018-06-22T22:02:57.936Z,54.81
2018-06-22T22:06:02.205Z,55.62
2018-06-22T22:09:08.089Z,55.89
2018-06-22T22:12:11.687Z,55.33
2018-06-22T22:15:15.866Z,55.27
2018-06-22T22:18:19.344Z,55.22
2018-06-22T22:21:23.834Z,55.49
2018-06-22T22:24:27.334Z,55.11
2018-06-22T22:27:30.656Z,55.25
2018-06-22T22:30:34.025Z,55.01
2018-06-22T22:33:37.530Z,55.20
2018-06-22T22:36:41.329Z,55.54
2018-06-22T22:39:44.813Z,55.31
2018-06-22T22:42:48.254Z,55.71
2018-06-22T22:45:52.153Z,55.88
2018-06-22T22:48:55.433Z,56.16
2018-06-22T22:51:58.733Z,56.95
2018-06-22T22:55:02.738Z,57.88
2018-06-22T22:58:06.279Z,58.57
2018-06-22T23:01:09.664Z,58.63
2018-06-22T23:04:13.012Z,58.45
2018-06-22T23:07:16.952Z,58.65
2018-06-22T23:10:21.149Z,58.24
2018-06-22T23:13:26.671Z,58.69
2018-06-22T23:16:30.023Z,59.15
2018-06-22T23:19:33.565Z,59.65
2018-06-22T23:22:48.402Z,60.03
2018-06-22T23:25:52.296Z,59.92
2018-06-22T23:28:56.676Z,60.69
2018-06-22T23:32:00.048Z,60.67
2018-06-22T23:35:03.349Z,60.40
2018-06-22T23:38:07.903Z,60.55
2018-06-22T23:41:11.276Z,60.96
2018-06-22T23:44:15.716Z,61.30
2018-06-22T23:47:18.968Z,61.67
2018-06-22T23:50:22.205Z,61.98
2018-06-22T23:53:25.404Z,62.33
2018-06-22T23:56:28.618Z,62.68
2018-06-22T23:59:31.904Z,61.95
